sensor_id;sensor_type;location;lat;lon;timestamp;temperature;humidity
66827;DHT22;53727;45.242;19.796;2022-10-16T11:37:50;640.80;1894.40
66827;DHT22;53727;45.242;19.796;2022-10-16T11:40:32;640.70;1843.20
66827;DHT22;53727;45.242;19.796;2022-10-16T11:43:32;640.80;1817.60
66827;DHT22;53727;45.242;19.796;2022-10-16T11:46:08;640.30;1817.60
66827;DHT22;53727;45.242;19.796;2022-10-16T11:51:26;640.20;1817.60
66827;DHT22;53727;45.242;19.796;2022-10-16T11:54:02;640.10;1894.40
66827;DHT22;53727;45.242;19.796;2022-10-16T11:56:31;640.20;1817.60
66827;DHT22;53727;45.242;19.796;2022-10-16T12:01:53;640.20;1792.00
66827;DHT22;53727;45.242;19.796;2022-10-16T12:07:20;640.60;1766.40
66827;DHT22;53727;45.242;19.796;2022-10-16T12:09:47;640.60;1792.00
66827;DHT22;53727;45.242;19.796;2022-10-16T12:12:38;640.60;1792.00
66827;DHT22;53727;45.242;19.796;2022-10-16T12:17:48;665.60;1792.00
66827;DHT22;53727;45.242;19.796;2022-10-16T12:22:56;640.80;1715.20
66827;DHT22;53727;45.242;19.796;2022-10-16T12:27:55;640.80;1715.20
66827;DHT22;53727;45.242;19.796;2022-10-16T12:30:24;640.50;1766.40
66827;DHT22;53727;45.242;19.796;2022-10-16T12:32:56;640.80;1792.00
66827;DHT22;53727;45.242;19.796;2022-10-16T12:35:25;665.80;1766.40
66827;DHT22;53727;45.242;19.796;2022-10-16T12:37:52;665.90;1715.20
66827;DHT22;53727;45.242;19.796;2022-10-16T12:40:32;640.80;1715.20
66827;DHT22;53727;45.242;19.796;2022-10-16T12:42:58;640.80;1766.40
66827;DHT22;53727;45.242;19.796;2022-10-16T12:45:31;665.80;1792.00
66827;DHT22;53727;45.242;19.796;2022-10-16T12:47:58;665.70;1792.00
66827;DHT22;53727;45.242;19.796;2022-10-16T12:52:57;666.10;1894.40
66827;DHT22;53727;45.242;19.796;2022-10-16T12:55:23;666.30;1689.60
66827;DHT22;53727;45.242;19.796;2022-10-16T12:58:03;666.40;1740.80
66827;DHT22;53727;45.242;19.796;2022-10-16T13:03:25;666.20;1766.40
66827;DHT22;53727;45.242;19.796;2022-10-16T13:29:21;665.90;1689.60
66827;DHT22;53727;45.242;19.796;2022-10-16T13:31:47;665.90;1740.80
66827;DHT22;53727;45.242;19.796;2022-10-16T13:34:19;665.90;1766.40
66827;DHT22;53727;45.242;19.796;2022-10-16T13:36:51;666.10;1766.40
66827;DHT22;53727;45.242;19.796;2022-10-16T13:44:44;666.20;1664.00
66827;DHT22;53727;45.242;19.796;2022-10-16T13:47:16;665.90;1715.20
66827;DHT22;53727;45.242;19.796;2022-10-16T14:17:31;768.60;1433.60
66827;DHT22;53727;45.242;19.796;2022-10-16T17:58:52;461.40;2380.80
66827;DHT22;53727;45.242;19.796;2022-10-16T18:01:19;461.20;2380.80
66827;DHT22;53727;45.242;19.796;2022-10-16T18:03:53;461.20;2380.80
66827;DHT22;53727;45.242;19.796;2022-10-16T18:06:19;461.10;2380.80
66827;DHT22;53727;45.242;19.796;2022-10-16T18:08:45;461.10;2380.80
66827;DHT22;53727;45.242;19.796;2022-10-16T18:11:11;461.10;2380.80
66827;DHT22;53727;45.242;19.796;2022-10-16T18:13:37;461.00;2380.80
66827;DHT22;53727;45.242;19.796;2022-10-16T18:16:05;461.10;2380.80
66827;DHT22;53727;45.242;19.796;2022-10-16T18:18:31;461.10;2380.80
66827;DHT22;53727;45.242;19.796;2022-10-16T18:20:58;461.10;2380.80
66827;DHT22;53727;45.242;19.796;2022-10-16T18:23:24;461.00;2380.80
66827;DHT22;53727;45.242;19.796;2022-10-16T18:25:50;461.10;2380.80
66827;DHT22;53727;45.242;19.796;2022-10-16T18:28:16;461.10;2380.80
66827;DHT22;53727;45.242;19.796;2022-10-16T18:30:42;461.10;2380.80
66827;DHT22;53727;45.242;19.796;2022-10-16T18:33:08;461.10;2355.20
66827;DHT22;53727;45.242;19.796;2022-10-16T18:35:37;461.10;2355.20
66827;DHT22;53727;45.242;19.796;2022-10-16T18:38:02;461.10;2355.20
66827;DHT22;53727;45.242;19.796;2022-10-16T18:40:28;461.10;2329.60
66827;DHT22;53727;45.242;19.796;2022-10-16T18:42:54;461.00;2329.60
66827;DHT22;53727;45.242;19.796;2022-10-16T18:45:20;461.00;2329.60
66827;DHT22;53727;45.242;19.796;2022-10-16T18:47:46;461.00;2329.60
66827;DHT22;53727;45.242;19.796;2022-10-16T18:50:12;461.00;2355.20
66827;DHT22;53727;45.242;19.796;2022-10-16T18:52:37;461.10;2329.60
66827;DHT22;53727;45.242;19.796;2022-10-16T18:55:05;461.10;2329.60
66827;DHT22;53727;45.242;19.796;2022-10-16T18:57:30;461.00;2304.00
66827;DHT22;53727;45.242;19.796;2022-10-16T18:59:56;461.00;2304.00
66827;DHT22;53727;45.242;19.796;2022-10-16T19:02:22;461.00;2329.60
66827;DHT22;53727;45.242;19.796;2022-10-16T19:04:48;461.00;2304.00
66827;DHT22;53727;45.242;19.796;2022-10-16T19:07:14;461.00;2304.00
66827;DHT22;53727;45.242;19.796;2022-10-16T19:09:40;461.00;2329.60
66827;DHT22;53727;45.242;19.796;2022-10-16T19:12:06;461.00;2329.60
66827;DHT22;53727;45.242;19.796;2022-10-16T19:14:32;461.00;2380.80
66827;DHT22;53727;45.242;19.796;2022-10-16T19:16:58;460.90;2355.20
